Pagrindinis puslapis
METAR-TAF:

METAR-TAF

Oro uostai :

Ki Vestas, Florida, Jungtinės Amerikos Valstijos

platuma: 24-33-13N, ilguma: 081-45-13W, Aukštis: 1 m

Dabartinis oras

Ataskaita buvo paskelbta 1 valandą ir 3 minutes, ne 23:53 UTC
Vėjas 9 kt iš Šiaurės Vakarų
Temperatūra 27°C
Drėgmė 79%
Slėgis 1012 hPa
Matomumas: 16.1 km
Giedras dangus

METAR: KEYW 092353Z 32009KT 10SM CLR 27/23 A2988 RMK AO2 SLP119 T02670228 10294 20267 53004

Laikas: 20:56 (00:56 UTC)

Prognozė

Ataskaita buvo paskelbta 1 valandą ir 21 minutes, ne 23:35 UTC
Prognozė galioja nuo 10 metu 00 UTC su 10 metu 24 UTC
Vėjas 7 kt iš Vakarų
Matomumas: 10 km
Mažai debesys ne aukštis 2000 ft

TAF: KEYW 092335Z 1000/1024 28007KT P6SM FEW020

Orai ataskaitas ir orų prognozės (METAR, TAF).

turimą stotys yra geltonos ir raudonos taškus žemėlapyje.

Perkelti pele per norėdami pamatyti stoties vardą.

Tada spustelėkite, norėdami matyti oro stebėjimo ir prognozės.

Norėdami pakeisti žemėlapį: spustelėkite ant žalios mygtukų su juodo kryžiaus žemyn,; žalią mygtuką su brūkšneliu, jei norite nutolinti; arba žalių rodyklių gretimoms žemėlapius.


METAR-TAF: